sensor_id;sensor_type;location;lat;lon;timestamp;temperature;humidity
9919;DHT22;4998;51.024;13.828;2024-02-04T00:02:09;13.20;90.60
9919;DHT22;4998;51.024;13.828;2024-02-04T00:04:39;13.20;90.60
9919;DHT22;4998;51.024;13.828;2024-02-04T00:07:07;13.30;90.60
9919;DHT22;4998;51.024;13.828;2024-02-04T00:09:34;13.20;90.50
9919;DHT22;4998;51.024;13.828;2024-02-04T00:12:01;13.30;90.60
9919;DHT22;4998;51.024;13.828;2024-02-04T00:14:29;13.20;90.50
9919;DHT22;4998;51.024;13.828;2024-02-04T00:16:57;13.20;90.60
9919;DHT22;4998;51.024;13.828;2024-02-04T00:19:26;13.30;90.60
9919;DHT22;4998;51.024;13.828;2024-02-04T00:21:53;13.30;90.70
9919;DHT22;4998;51.024;13.828;2024-02-04T00:24:20;13.30;90.70
9919;DHT22;4998;51.024;13.828;2024-02-04T00:26:47;13.30;90.70
9919;DHT22;4998;51.024;13.828;2024-02-04T00:29:14;13.20;90.70
9919;DHT22;4998;51.024;13.828;2024-02-04T00:31:41;13.30;90.80
9919;DHT22;4998;51.024;13.828;2024-02-04T00:34:08;13.30;90.80
9919;DHT22;4998;51.024;13.828;2024-02-04T00:36:36;13.20;90.80
9919;DHT22;4998;51.024;13.828;2024-02-04T00:39:03;13.20;90.80
9919;DHT22;4998;51.024;13.828;2024-02-04T00:41:32;13.30;90.80
9919;DHT22;4998;51.024;13.828;2024-02-04T00:43:59;13.30;90.90
9919;DHT22;4998;51.024;13.828;2024-02-04T00:46:26;13.20;90.90
9919;DHT22;4998;51.024;13.828;2024-02-04T00:48:53;13.20;90.90
9919;DHT22;4998;51.024;13.828;2024-02-04T00:51:21;13.30;91.20
9919;DHT22;4998;51.024;13.828;2024-02-04T00:53:50;13.20;90.90
9919;DHT22;4998;51.024;13.828;2024-02-04T00:56:18;13.20;90.90
9919;DHT22;4998;51.024;13.828;2024-02-04T00:58:45;13.20;91.00
9919;DHT22;4998;51.024;13.828;2024-02-04T01:01:12;13.20;91.10
9919;DHT22;4998;51.024;13.828;2024-02-04T01:03:39;13.20;91.30
9919;DHT22;4998;51.024;13.828;2024-02-04T01:06:06;13.20;91.40
9919;DHT22;4998;51.024;13.828;2024-02-04T01:08:33;13.10;91.20
9919;DHT22;4998;51.024;13.828;2024-02-04T01:11:05;13.20;91.20
9919;DHT22;4998;51.024;13.828;2024-02-04T01:13:32;13.10;91.20
9919;DHT22;4998;51.024;13.828;2024-02-04T01:15:59;13.00;91.10
9919;DHT22;4998;51.024;13.828;2024-02-04T01:18:26;13.00;91.10
9919;DHT22;4998;51.024;13.828;2024-02-04T01:20:53;13.00;91.10
9919;DHT22;4998;51.024;13.828;2024-02-04T01:23:20;13.00;91.10
9919;DHT22;4998;51.024;13.828;2024-02-04T01:25:47;13.00;91.10
9919;DHT22;4998;51.024;13.828;2024-02-04T01:28:16;13.00;91.10
9919;DHT22;4998;51.024;13.828;2024-02-04T01:30:43;12.90;91.00
9919;DHT22;4998;51.024;13.828;2024-02-04T01:33:10;12.90;91.00
9919;DHT22;4998;51.024;13.828;2024-02-04T01:35:37;12.90;91.00
9919;DHT22;4998;51.024;13.828;2024-02-04T01:38:04;12.90;90.90
9919;DHT22;4998;51.024;13.828;2024-02-04T01:40:31;12.90;90.90
9919;DHT22;4998;51.024;13.828;2024-02-04T01:42:58;13.00;91.30
9919;DHT22;4998;51.024;13.828;2024-02-04T01:45:27;12.90;90.80
9919;DHT22;4998;51.024;13.828;2024-02-04T01:47:54;13.00;90.80
9919;DHT22;4998;51.024;13.828;2024-02-04T01:50:23;13.00;90.70
9919;DHT22;4998;51.024;13.828;2024-02-04T01:52:51;13.00;90.60
9919;DHT22;4998;51.024;13.828;2024-02-04T01:55:19;13.00;90.50
9919;DHT22;4998;51.024;13.828;2024-02-04T01:57:47;13.00;90.50
9919;DHT22;4998;51.024;13.828;2024-02-04T02:00:15;13.00;90.40
9919;DHT22;4998;51.024;13.828;2024-02-04T02:02:46;13.00;90.20
9919;DHT22;4998;51.024;13.828;2024-02-04T02:05:15;13.00;90.10
9919;DHT22;4998;51.024;13.828;2024-02-04T02:07:42;13.00;90.10
9919;DHT22;4998;51.024;13.828;2024-02-04T02:10:11;12.90;90.10
9919;DHT22;4998;51.024;13.828;2024-02-04T02:12:43;12.90;90.00
9919;DHT22;4998;51.024;13.828;2024-02-04T02:15:15;12.90;90.00
9919;DHT22;4998;51.024;13.828;2024-02-04T02:17:51;12.90;90.00
9919;DHT22;4998;51.024;13.828;2024-02-04T02:20:23;12.80;90.00
9919;DHT22;4998;51.024;13.828;2024-02-04T02:22:57;12.80;90.00
9919;DHT22;4998;51.024;13.828;2024-02-04T02:25:31;12.80;90.10
9919;DHT22;4998;51.024;13.828;2024-02-04T02:27:58;12.80;90.10
9919;DHT22;4998;51.024;13.828;2024-02-04T02:30:26;12.80;90.10
9919;DHT22;4998;51.024;13.828;2024-02-04T02:32:53;12.70;90.20
9919;DHT22;4998;51.024;13.828;2024-02-04T02:35:21;12.70;90.20
9919;DHT22;4998;51.024;13.828;2024-02-04T02:37:55;12.70;90.20
9919;DHT22;4998;51.024;13.828;2024-02-04T02:40:26;12.70;90.20
9919;DHT22;4998;51.024;13.828;2024-02-04T02:42:57;12.70;90.30
9919;DHT22;4998;51.024;13.828;2024-02-04T02:45:26;12.70;90.40
9919;DHT22;4998;51.024;13.828;2024-02-04T02:47:52;12.70;90.40
9919;DHT22;4998;51.024;13.828;2024-02-04T02:50:20;12.60;90.40
9919;DHT22;4998;51.024;13.828;2024-02-04T02:52:47;12.70;90.50
9919;DHT22;4998;51.024;13.828;2024-02-04T02:55:14;12.70;90.50
9919;DHT22;4998;51.024;13.828;2024-02-04T02:57:42;12.70;90.60
9919;DHT22;4998;51.024;13.828;2024-02-04T03:00:11;12.70;90.70
9919;DHT22;4998;51.024;13.828;2024-02-04T03:02:39;12.70;90.80
9919;DHT22;4998;51.024;13.828;2024-02-04T03:05:06;12.70;90.80
9919;DHT22;4998;51.024;13.828;2024-02-04T03:07:33;12.70;90.90
9919;DHT22;4998;51.024;13.828;2024-02-04T03:10:00;12.70;90.80
9919;DHT22;4998;51.024;13.828;2024-02-04T03:12:28;12.70;91.00
9919;DHT22;4998;51.024;13.828;2024-02-04T03:14:55;12.70;91.00
9919;DHT22;4998;51.024;13.828;2024-02-04T03:17:23;12.80;91.10
9919;DHT22;4998;51.024;13.828;2024-02-04T03:19:51;12.80;91.20
9919;DHT22;4998;51.024;13.828;2024-02-04T03:22:20;12.80;91.20
9919;DHT22;4998;51.024;13.828;2024-02-04T03:24:48;12.80;91.20
9919;DHT22;4998;51.024;13.828;2024-02-04T03:27:16;12.80;91.30
9919;DHT22;4998;51.024;13.828;2024-02-04T03:29:43;12.90;91.40
9919;DHT22;4998;51.024;13.828;2024-02-04T03:32:10;12.90;91.40
9919;DHT22;4998;51.024;13.828;2024-02-04T03:34:41;12.90;91.50
9919;DHT22;4998;51.024;13.828;2024-02-04T03:37:08;12.80;91.60
9919;DHT22;4998;51.024;13.828;2024-02-04T03:39:35;12.90;91.60
9919;DHT22;4998;51.024;13.828;2024-02-04T03:42:03;12.90;91.50
9919;DHT22;4998;51.024;13.828;2024-02-04T03:44:30;12.90;91.60
9919;DHT22;4998;51.024;13.828;2024-02-04T03:46:57;12.90;91.60
9919;DHT22;4998;51.024;13.828;2024-02-04T03:49:24;12.90;91.50
9919;DHT22;4998;51.024;13.828;2024-02-04T03:51:52;12.80;91.40
9919;DHT22;4998;51.024;13.828;2024-02-04T03:54:19;12.80;91.50
9919;DHT22;4998;51.024;13.828;2024-02-04T03:56:46;12.80;91.40
9919;DHT22;4998;51.024;13.828;2024-02-04T03:59:13;12.90;91.40
9919;DHT22;4998;51.024;13.828;2024-02-04T04:01:40;12.90;91.30
9919;DHT22;4998;51.024;13.828;2024-02-04T04:04:08;12.90;91.30
9919;DHT22;4998;51.024;13.828;2024-02-04T04:06:36;12.80;91.20
9919;DHT22;4998;51.024;13.828;2024-02-04T04:09:04;12.90;91.20
9919;DHT22;4998;51.024;13.828;2024-02-04T04:11:32;12.80;91.20
9919;DHT22;4998;51.024;13.828;2024-02-04T04:14:00;12.80;91.30
9919;DHT22;4998;51.024;13.828;2024-02-04T04:16:27;12.80;91.20
9919;DHT22;4998;51.024;13.828;2024-02-04T04:18:54;12.80;91.30
9919;DHT22;4998;51.024;13.828;2024-02-04T04:21:21;12.80;91.30
9919;DHT22;4998;51.024;13.828;2024-02-04T04:23:48;12.80;91.20
9919;DHT22;4998;51.024;13.828;2024-02-04T04:26:17;12.80;91.20
9919;DHT22;4998;51.024;13.828;2024-02-04T04:28:44;12.90;91.20
9919;DHT22;4998;51.024;13.828;2024-02-04T04:31:11;12.80;91.20
9919;DHT22;4998;51.024;13.828;2024-02-04T04:33:38;12.90;91.20
9919;DHT22;4998;51.024;13.828;2024-02-04T04:36:06;12.80;91.20
9919;DHT22;4998;51.024;13.828;2024-02-04T04:38:34;12.80;91.60
9919;DHT22;4998;51.024;13.828;2024-02-04T04:41:01;12.80;91.20
9919;DHT22;4998;51.024;13.828;2024-02-04T04:43:29;13.00;91.30
9919;DHT22;4998;51.024;13.828;2024-02-04T04:45:56;12.80;91.60
9919;DHT22;4998;51.024;13.828;2024-02-04T04:48:23;12.80;91.20
9919;DHT22;4998;51.024;13.828;2024-02-04T04:50:50;12.80;91.20
9919;DHT22;4998;51.024;13.828;2024-02-04T04:53:17;12.90;91.30
9919;DHT22;4998;51.024;13.828;2024-02-04T04:55:44;12.90;91.30
9919;DHT22;4998;51.024;13.828;2024-02-04T04:58:11;12.90;91.20
9919;DHT22;4998;51.024;13.828;2024-02-04T05:00:40;12.90;91.20
9919;DHT22;4998;51.024;13.828;2024-02-04T05:03:07;12.90;91.20
9919;DHT22;4998;51.024;13.828;2024-02-04T05:05:34;12.90;91.30
9919;DHT22;4998;51.024;13.828;2024-02-04T05:08:01;12.90;91.30
9919;DHT22;4998;51.024;13.828;2024-02-04T05:10:28;12.90;91.20
9919;DHT22;4998;51.024;13.828;2024-02-04T05:12:55;12.90;91.20
9919;DHT22;4998;51.024;13.828;2024-02-04T05:15:22;13.00;91.30
9919;DHT22;4998;51.024;13.828;2024-02-04T05:17:52;12.90;91.10
9919;DHT22;4998;51.024;13.828;2024-02-04T05:20:20;13.00;91.10
9919;DHT22;4998;51.024;13.828;2024-02-04T05:22:47;13.00;91.00
9919;DHT22;4998;51.024;13.828;2024-02-04T05:25:14;13.00;91.00
9919;DHT22;4998;51.024;13.828;2024-02-04T05:27:41;13.00;91.00
9919;DHT22;4998;51.024;13.828;2024-02-04T05:30:09;13.00;90.90
9919;DHT22;4998;51.024;13.828;2024-02-04T05:32:36;13.00;91.00
9919;DHT22;4998;51.024;13.828;2024-02-04T05:35:07;13.00;91.00
9919;DHT22;4998;51.024;13.828;2024-02-04T05:37:34;13.00;91.00
9919;DHT22;4998;51.024;13.828;2024-02-04T05:40:01;13.00;91.10
9919;DHT22;4998;51.024;13.828;2024-02-04T05:42:29;13.00;91.10
9919;DHT22;4998;51.024;13.828;2024-02-04T05:44:57;13.00;91.10
9919;DHT22;4998;51.024;13.828;2024-02-04T05:47:24;13.00;91.50
9919;DHT22;4998;51.024;13.828;2024-02-04T05:49:51;13.10;91.20
9919;DHT22;4998;51.024;13.828;2024-02-04T05:52:20;13.00;91.30
9919;DHT22;4998;51.024;13.828;2024-02-04T05:54:47;13.00;91.30
9919;DHT22;4998;51.024;13.828;2024-02-04T05:57:14;13.00;91.40
9919;DHT22;4998;51.024;13.828;2024-02-04T05:59:41;13.00;91.40
9919;DHT22;4998;51.024;13.828;2024-02-04T06:02:09;13.00;91.40
9919;DHT22;4998;51.024;13.828;2024-02-04T06:04:37;13.00;91.40
9919;DHT22;4998;51.024;13.828;2024-02-04T06:07:05;12.90;91.30
9919;DHT22;4998;51.024;13.828;2024-02-04T06:09:34;13.00;91.30
9919;DHT22;4998;51.024;13.828;2024-02-04T06:12:02;13.00;91.40
9919;DHT22;4998;51.024;13.828;2024-02-04T06:14:33;13.00;91.40
9919;DHT22;4998;51.024;13.828;2024-02-04T06:17:00;13.00;91.40
9919;DHT22;4998;51.024;13.828;2024-02-04T06:19:27;13.00;91.50
9919;DHT22;4998;51.024;13.828;2024-02-04T06:21:54;13.00;91.50
9919;DHT22;4998;51.024;13.828;2024-02-04T06:24:21;13.00;91.70
9919;DHT22;4998;51.024;13.828;2024-02-04T06:26:50;13.00;91.80
9919;DHT22;4998;51.024;13.828;2024-02-04T06:29:16;13.00;91.90
9919;DHT22;4998;51.024;13.828;2024-02-04T06:31:44;13.00;92.00
9919;DHT22;4998;51.024;13.828;2024-02-04T06:34:12;12.90;92.10
9919;DHT22;4998;51.024;13.828;2024-02-04T06:36:42;13.00;92.20
9919;DHT22;4998;51.024;13.828;2024-02-04T06:39:10;12.90;92.30
9919;DHT22;4998;51.024;13.828;2024-02-04T06:41:37;12.90;92.30
9919;DHT22;4998;51.024;13.828;2024-02-04T06:44:05;12.90;92.30
9919;DHT22;4998;51.024;13.828;2024-02-04T06:46:33;12.90;92.50
9919;DHT22;4998;51.024;13.828;2024-02-04T06:48:59;12.90;92.40
9919;DHT22;4998;51.024;13.828;2024-02-04T06:51:27;12.90;92.50
9919;DHT22;4998;51.024;13.828;2024-02-04T06:53:54;12.90;92.50
9919;DHT22;4998;51.024;13.828;2024-02-04T06:56:21;12.80;92.40
9919;DHT22;4998;51.024;13.828;2024-02-04T06:58:48;12.80;92.50
9919;DHT22;4998;51.024;13.828;2024-02-04T07:01:16;12.80;92.60
9919;DHT22;4998;51.024;13.828;2024-02-04T07:03:43;12.80;92.70
9919;DHT22;4998;51.024;13.828;2024-02-04T07:06:11;12.80;92.70
9919;DHT22;4998;51.024;13.828;2024-02-04T07:08:38;12.90;92.80
9919;DHT22;4998;51.024;13.828;2024-02-04T07:11:05;12.90;92.70
9919;DHT22;4998;51.024;13.828;2024-02-04T07:13:32;12.80;92.60
9919;DHT22;4998;51.024;13.828;2024-02-04T07:15:59;12.90;92.70
9919;DHT22;4998;51.024;13.828;2024-02-04T07:18:28;12.90;92.60
9919;DHT22;4998;51.024;13.828;2024-02-04T07:20:55;12.90;92.60
9919;DHT22;4998;51.024;13.828;2024-02-04T07:23:22;13.00;92.70
9919;DHT22;4998;51.024;13.828;2024-02-04T07:25:50;13.00;92.80
9919;DHT22;4998;51.024;13.828;2024-02-04T07:28:17;13.00;92.70
9919;DHT22;4998;51.024;13.828;2024-02-04T07:30:44;13.10;92.80
9919;DHT22;4998;51.024;13.828;2024-02-04T07:33:11;13.10;92.70
9919;DHT22;4998;51.024;13.828;2024-02-04T07:35:40;13.10;92.80
9919;DHT22;4998;51.024;13.828;2024-02-04T07:38:07;13.10;92.80
9919;DHT22;4998;51.024;13.828;2024-02-04T07:40:34;13.20;92.80
9919;DHT22;4998;51.024;13.828;2024-02-04T07:43:01;13.20;92.80
9919;DHT22;4998;51.024;13.828;2024-02-04T07:45:29;13.20;92.90
9919;DHT22;4998;51.024;13.828;2024-02-04T07:47:56;13.20;92.90
9919;DHT22;4998;51.024;13.828;2024-02-04T07:50:23;13.20;92.90
9919;DHT22;4998;51.024;13.828;2024-02-04T07:52:51;13.20;92.80
9919;DHT22;4998;51.024;13.828;2024-02-04T07:55:19;13.30;92.80
9919;DHT22;4998;51.024;13.828;2024-02-04T07:57:46;13.30;92.80
9919;DHT22;4998;51.024;13.828;2024-02-04T08:00:13;13.40;93.20
9919;DHT22;4998;51.024;13.828;2024-02-04T08:02:40;13.40;92.70
9919;DHT22;4998;51.024;13.828;2024-02-04T08:05:08;13.40;92.60
9919;DHT22;4998;51.024;13.828;2024-02-04T08:07:35;13.50;92.60
9919;DHT22;4998;51.024;13.828;2024-02-04T08:10:04;13.50;92.50
9919;DHT22;4998;51.024;13.828;2024-02-04T08:12:33;13.50;92.40
9919;DHT22;4998;51.024;13.828;2024-02-04T08:15:00;13.60;92.50
9919;DHT22;4998;51.024;13.828;2024-02-04T08:17:27;13.60;92.30
9919;DHT22;4998;51.024;13.828;2024-02-04T08:19:56;13.70;92.40
9919;DHT22;4998;51.024;13.828;2024-02-04T08:22:23;13.70;92.40
9919;DHT22;4998;51.024;13.828;2024-02-04T08:24:50;13.70;92.00
9919;DHT22;4998;51.024;13.828;2024-02-04T08:27:19;13.80;92.00
9919;DHT22;4998;51.024;13.828;2024-02-04T08:29:46;13.80;91.90
9919;DHT22;4998;51.024;13.828;2024-02-04T08:32:13;13.90;91.60
9919;DHT22;4998;51.024;13.828;2024-02-04T08:34:40;13.90;91.70
9919;DHT22;4998;51.024;13.828;2024-02-04T08:37:07;13.90;91.40
9919;DHT22;4998;51.024;13.828;2024-02-04T08:39:35;14.00;91.50
9919;DHT22;4998;51.024;13.828;2024-02-04T08:42:02;14.00;91.30
9919;DHT22;4998;51.024;13.828;2024-02-04T08:44:30;14.00;91.30
9919;DHT22;4998;51.024;13.828;2024-02-04T08:46:57;14.10;91.20
9919;DHT22;4998;51.024;13.828;2024-02-04T08:49:25;14.10;90.80
9919;DHT22;4998;51.024;13.828;2024-02-04T08:51:52;14.10;90.90
9919;DHT22;4998;51.024;13.828;2024-02-04T08:54:19;14.20;91.00
9919;DHT22;4998;51.024;13.828;2024-02-04T08:56:46;14.20;90.90
9919;DHT22;4998;51.024;13.828;2024-02-04T08:59:13;14.20;90.60
9919;DHT22;4998;51.024;13.828;2024-02-04T09:01:42;14.20;90.70
9919;DHT22;4998;51.024;13.828;2024-02-04T09:04:09;14.30;90.70
9919;DHT22;4998;51.024;13.828;2024-02-04T09:06:37;14.30;90.60
9919;DHT22;4998;51.024;13.828;2024-02-04T09:09:04;14.30;90.50
9919;DHT22;4998;51.024;13.828;2024-02-04T09:11:31;14.30;90.90
9919;DHT22;4998;51.024;13.828;2024-02-04T09:13:58;14.30;90.40
9919;DHT22;4998;51.024;13.828;2024-02-04T09:16:25;14.40;90.40
9919;DHT22;4998;51.024;13.828;2024-02-04T09:18:53;14.30;90.50
9919;DHT22;4998;51.024;13.828;2024-02-04T09:21:20;14.30;90.60
9919;DHT22;4998;51.024;13.828;2024-02-04T09:23:48;14.30;90.70
9919;DHT22;4998;51.024;13.828;2024-02-04T09:26:15;14.30;90.90
9919;DHT22;4998;51.024;13.828;2024-02-04T09:28:42;14.30;90.90
9919;DHT22;4998;51.024;13.828;2024-02-04T09:31:09;14.20;91.10
9919;DHT22;4998;51.024;13.828;2024-02-04T09:33:36;14.20;91.30
9919;DHT22;4998;51.024;13.828;2024-02-04T09:36:05;14.10;91.50
9919;DHT22;4998;51.024;13.828;2024-02-04T09:38:32;14.00;91.60
9919;DHT22;4998;51.024;13.828;2024-02-04T09:41:00;14.00;91.80
9919;DHT22;4998;51.024;13.828;2024-02-04T09:43:30;13.90;92.00
9919;DHT22;4998;51.024;13.828;2024-02-04T09:45:58;13.80;92.00
9919;DHT22;4998;51.024;13.828;2024-02-04T09:48:25;13.80;92.20
9919;DHT22;4998;51.024;13.828;2024-02-04T09:50:53;13.70;92.20
9919;DHT22;4998;51.024;13.828;2024-02-04T09:53:32;13.70;92.30
9919;DHT22;4998;51.024;13.828;2024-02-04T09:56:02;13.70;92.30
9919;DHT22;4998;51.024;13.828;2024-02-04T09:58:29;13.70;92.30
9919;DHT22;4998;51.024;13.828;2024-02-04T10:00:56;13.70;92.30
9919;DHT22;4998;51.024;13.828;2024-02-04T10:03:24;13.70;92.30
9919;DHT22;4998;51.024;13.828;2024-02-04T10:05:51;13.70;92.40
9919;DHT22;4998;51.024;13.828;2024-02-04T10:08:19;13.70;92.40
9919;DHT22;4998;51.024;13.828;2024-02-04T10:10:48;13.70;92.40
9919;DHT22;4998;51.024;13.828;2024-02-04T10:13:15;13.70;92.40
9919;DHT22;4998;51.024;13.828;2024-02-04T10:15:42;13.70;92.40
9919;DHT22;4998;51.024;13.828;2024-02-04T10:18:10;13.80;92.50
9919;DHT22;4998;51.024;13.828;2024-02-04T10:20:37;13.70;92.50
9919;DHT22;4998;51.024;13.828;2024-02-04T10:23:04;13.80;92.60
9919;DHT22;4998;51.024;13.828;2024-02-04T10:25:31;13.80;92.60
9919;DHT22;4998;51.024;13.828;2024-02-04T10:28:00;13.80;92.70
9919;DHT22;4998;51.024;13.828;2024-02-04T10:30:27;13.80;93.00
9919;DHT22;4998;51.024;13.828;2024-02-04T10:32:54;13.80;93.00
9919;DHT22;4998;51.024;13.828;2024-02-04T10:35:22;13.90;93.40
9919;DHT22;4998;51.024;13.828;2024-02-04T10:37:49;13.90;93.30
9919;DHT22;4998;51.024;13.828;2024-02-04T10:40:17;14.00;93.20
9919;DHT22;4998;51.024;13.828;2024-02-04T10:42:44;14.10;93.00
9919;DHT22;4998;51.024;13.828;2024-02-04T10:45:16;14.10;92.90
9919;DHT22;4998;51.024;13.828;2024-02-04T10:47:56;14.10;92.80
9919;DHT22;4998;51.024;13.828;2024-02-04T10:50:24;14.00;92.70
9919;DHT22;4998;51.024;13.828;2024-02-04T10:52:53;14.00;92.60
9919;DHT22;4998;51.024;13.828;2024-02-04T10:55:26;14.00;92.70
9919;DHT22;4998;51.024;13.828;2024-02-04T10:57:54;13.90;92.70
9919;DHT22;4998;51.024;13.828;2024-02-04T11:00:24;13.90;92.70
9919;DHT22;4998;51.024;13.828;2024-02-04T11:02:53;13.90;92.80
9919;DHT22;4998;51.024;13.828;2024-02-04T11:05:21;13.90;92.80
9919;DHT22;4998;51.024;13.828;2024-02-04T11:07:50;13.80;92.90
9919;DHT22;4998;51.024;13.828;2024-02-04T11:10:18;13.80;92.90
9919;DHT22;4998;51.024;13.828;2024-02-04T11:12:46;13.80;93.00
9919;DHT22;4998;51.024;13.828;2024-02-04T11:15:15;13.80;93.00
9919;DHT22;4998;51.024;13.828;2024-02-04T11:18:03;13.80;93.20
9919;DHT22;4998;51.024;13.828;2024-02-04T11:20:53;13.80;93.20
9919;DHT22;4998;51.024;13.828;2024-02-04T11:23:36;13.80;93.20
9919;DHT22;4998;51.024;13.828;2024-02-04T11:26:05;13.80;93.30
9919;DHT22;4998;51.024;13.828;2024-02-04T11:28:33;13.80;93.30
9919;DHT22;4998;51.024;13.828;2024-02-04T11:31:00;13.90;93.20
9919;DHT22;4998;51.024;13.828;2024-02-04T11:33:29;13.90;93.10
9919;DHT22;4998;51.024;13.828;2024-02-04T11:36:00;13.90;93.10
9919;DHT22;4998;51.024;13.828;2024-02-04T11:38:31;13.90;93.10
9919;DHT22;4998;51.024;13.828;2024-02-04T11:40:59;13.90;93.00
9919;DHT22;4998;51.024;13.828;2024-02-04T11:43:26;14.00;92.90
9919;DHT22;4998;51.024;13.828;2024-02-04T11:45:54;14.00;92.80
9919;DHT22;4998;51.024;13.828;2024-02-04T11:48:30;14.00;92.70
9919;DHT22;4998;51.024;13.828;2024-02-04T11:50:58;14.00;92.70
9919;DHT22;4998;51.024;13.828;2024-02-04T11:53:26;14.10;92.50
9919;DHT22;4998;51.024;13.828;2024-02-04T11:55:58;14.10;92.40
9919;DHT22;4998;51.024;13.828;2024-02-04T11:58:27;14.10;92.30
9919;DHT22;4998;51.024;13.828;2024-02-04T12:00:56;14.10;92.20
9919;DHT22;4998;51.024;13.828;2024-02-04T12:03:32;14.10;92.10
9919;DHT22;4998;51.024;13.828;2024-02-04T12:05:59;14.10;92.10
9919;DHT22;4998;51.024;13.828;2024-02-04T12:08:28;14.10;92.10
9919;DHT22;4998;51.024;13.828;2024-02-04T12:10:55;14.10;92.20
9919;DHT22;4998;51.024;13.828;2024-02-04T12:13:24;14.00;92.20
9919;DHT22;4998;51.024;13.828;2024-02-04T12:15:51;14.00;92.20
9919;DHT22;4998;51.024;13.828;2024-02-04T12:18:18;14.00;92.10
9919;DHT22;4998;51.024;13.828;2024-02-04T12:20:48;14.00;91.80
9919;DHT22;4998;51.024;13.828;2024-02-04T12:23:17;14.00;91.80
9919;DHT22;4998;51.024;13.828;2024-02-04T12:25:44;14.10;91.80
9919;DHT22;4998;51.024;13.828;2024-02-04T12:28:14;14.10;91.80
9919;DHT22;4998;51.024;13.828;2024-02-04T12:30:41;14.10;91.70
9919;DHT22;4998;51.024;13.828;2024-02-04T12:33:19;14.10;91.60
9919;DHT22;4998;51.024;13.828;2024-02-04T12:35:50;14.10;91.40
9919;DHT22;4998;51.024;13.828;2024-02-04T12:38:17;14.10;91.40
9919;DHT22;4998;51.024;13.828;2024-02-04T12:40:44;14.10;91.50
9919;DHT22;4998;51.024;13.828;2024-02-04T12:43:12;14.10;91.40
9919;DHT22;4998;51.024;13.828;2024-02-04T12:45:39;14.10;91.30
9919;DHT22;4998;51.024;13.828;2024-02-04T12:48:07;14.10;91.40
9919;DHT22;4998;51.024;13.828;2024-02-04T12:50:37;14.20;91.40
9919;DHT22;4998;51.024;13.828;2024-02-04T12:53:07;14.20;91.20
9919;DHT22;4998;51.024;13.828;2024-02-04T12:55:37;14.30;91.10
9919;DHT22;4998;51.024;13.828;2024-02-04T12:58:05;14.30;91.00
9919;DHT22;4998;51.024;13.828;2024-02-04T13:00:34;14.30;90.80
9919;DHT22;4998;51.024;13.828;2024-02-04T13:03:02;14.30;90.80
9919;DHT22;4998;51.024;13.828;2024-02-04T13:05:30;14.30;90.60
9919;DHT22;4998;51.024;13.828;2024-02-04T13:07:57;14.40;90.50
9919;DHT22;4998;51.024;13.828;2024-02-04T13:10:30;14.40;90.50
9919;DHT22;4998;51.024;13.828;2024-02-04T13:13:01;14.50;90.40
9919;DHT22;4998;51.024;13.828;2024-02-04T13:15:29;14.50;89.80
9919;DHT22;4998;51.024;13.828;2024-02-04T13:17:56;14.60;90.00
9919;DHT22;4998;51.024;13.828;2024-02-04T13:20:23;14.60;89.70
9919;DHT22;4998;51.024;13.828;2024-02-04T13:22:50;14.60;89.40
9919;DHT22;4998;51.024;13.828;2024-02-04T13:25:19;14.70;89.20
9919;DHT22;4998;51.024;13.828;2024-02-04T13:27:49;14.70;88.80
9919;DHT22;4998;51.024;13.828;2024-02-04T13:30:16;14.70;88.60
9919;DHT22;4998;51.024;13.828;2024-02-04T13:32:45;14.70;89.40
9919;DHT22;4998;51.024;13.828;2024-02-04T13:35:12;14.80;88.40
9919;DHT22;4998;51.024;13.828;2024-02-04T13:37:44;14.80;88.70
9919;DHT22;4998;51.024;13.828;2024-02-04T13:40:13;14.80;88.40
9919;DHT22;4998;51.024;13.828;2024-02-04T13:42:41;14.80;88.30
9919;DHT22;4998;51.024;13.828;2024-02-04T13:45:11;14.80;89.30
9919;DHT22;4998;51.024;13.828;2024-02-04T13:47:39;14.80;88.40
9919;DHT22;4998;51.024;13.828;2024-02-04T13:50:07;14.80;88.60
9919;DHT22;4998;51.024;13.828;2024-02-04T13:52:35;14.80;88.80
9919;DHT22;4998;51.024;13.828;2024-02-04T13:55:02;14.80;88.80
9919;DHT22;4998;51.024;13.828;2024-02-04T13:57:30;14.70;89.00
9919;DHT22;4998;51.024;13.828;2024-02-04T13:59:58;14.60;89.20
9919;DHT22;4998;51.024;13.828;2024-02-04T14:02:26;14.60;89.30
9919;DHT22;4998;51.024;13.828;2024-02-04T14:04:55;14.60;89.40
9919;DHT22;4998;51.024;13.828;2024-02-04T14:07:22;14.50;89.40
9919;DHT22;4998;51.024;13.828;2024-02-04T14:09:49;14.50;89.60
9919;DHT22;4998;51.024;13.828;2024-02-04T14:12:17;14.50;89.60
9919;DHT22;4998;51.024;13.828;2024-02-04T14:14:44;14.50;89.50
9919;DHT22;4998;51.024;13.828;2024-02-04T14:17:11;14.40;89.80
9919;DHT22;4998;51.024;13.828;2024-02-04T14:19:39;14.40;90.00
9919;DHT22;4998;51.024;13.828;2024-02-04T14:22:06;14.30;90.00
9919;DHT22;4998;51.024;13.828;2024-02-04T14:24:33;14.20;89.80
9919;DHT22;4998;51.024;13.828;2024-02-04T14:27:01;14.20;89.80
9919;DHT22;4998;51.024;13.828;2024-02-04T14:29:28;14.10;89.80
9919;DHT22;4998;51.024;13.828;2024-02-04T14:31:55;14.00;89.40
9919;DHT22;4998;51.024;13.828;2024-02-04T14:34:24;13.90;89.30
9919;DHT22;4998;51.024;13.828;2024-02-04T14:36:52;13.90;89.30
9919;DHT22;4998;51.024;13.828;2024-02-04T14:39:19;13.90;89.40
9919;DHT22;4998;51.024;13.828;2024-02-04T14:41:46;13.80;89.20
9919;DHT22;4998;51.024;13.828;2024-02-04T14:44:13;13.80;89.10
9919;DHT22;4998;51.024;13.828;2024-02-04T14:46:40;13.80;89.00
9919;DHT22;4998;51.024;13.828;2024-02-04T14:49:09;13.80;88.80
9919;DHT22;4998;51.024;13.828;2024-02-04T14:51:38;13.80;88.80
9919;DHT22;4998;51.024;13.828;2024-02-04T14:54:07;13.80;88.50
9919;DHT22;4998;51.024;13.828;2024-02-04T14:56:37;13.80;88.20
9919;DHT22;4998;51.024;13.828;2024-02-04T14:59:04;13.80;87.60
9919;DHT22;4998;51.024;13.828;2024-02-04T15:01:32;13.80;87.30
9919;DHT22;4998;51.024;13.828;2024-02-04T15:03:59;13.80;87.10
9919;DHT22;4998;51.024;13.828;2024-02-04T15:06:26;13.80;86.50
9919;DHT22;4998;51.024;13.828;2024-02-04T15:08:55;13.80;86.30
9919;DHT22;4998;51.024;13.828;2024-02-04T15:11:25;13.80;86.20
9919;DHT22;4998;51.024;13.828;2024-02-04T15:13:55;13.80;86.00
9919;DHT22;4998;51.024;13.828;2024-02-04T15:16:23;13.80;85.80
9919;DHT22;4998;51.024;13.828;2024-02-04T15:18:50;13.80;85.70
9919;DHT22;4998;51.024;13.828;2024-02-04T15:21:18;13.80;85.40
9919;DHT22;4998;51.024;13.828;2024-02-04T15:23:45;13.80;85.20
9919;DHT22;4998;51.024;13.828;2024-02-04T15:26:14;13.80;85.30
9919;DHT22;4998;51.024;13.828;2024-02-04T15:28:43;13.80;85.40
9919;DHT22;4998;51.024;13.828;2024-02-04T15:31:13;13.80;85.50
9919;DHT22;4998;51.024;13.828;2024-02-04T15:33:41;13.70;85.30
9919;DHT22;4998;51.024;13.828;2024-02-04T15:36:08;13.80;85.40
9919;DHT22;4998;51.024;13.828;2024-02-04T15:38:35;13.70;85.40
9919;DHT22;4998;51.024;13.828;2024-02-04T15:41:02;13.60;85.20
9919;DHT22;4998;51.024;13.828;2024-02-04T15:43:30;13.60;85.30
9919;DHT22;4998;51.024;13.828;2024-02-04T15:45:59;13.60;85.10
9919;DHT22;4998;51.024;13.828;2024-02-04T15:48:30;13.60;85.50
9919;DHT22;4998;51.024;13.828;2024-02-04T15:50:58;13.50;85.20